createdAt,value
2018-08-12T00:02:19.232Z,13.70
2018-08-12T00:04:51.700Z,13.70
2018-08-12T00:07:19.976Z,13.70
2018-08-12T00:09:52.012Z,13.60
2018-08-12T00:12:20.212Z,13.70
2018-08-12T00:14:48.447Z,13.70
2018-08-12T00:17:16.712Z,13.80
2018-08-12T00:19:44.892Z,13.70
2018-08-12T00:22:13.097Z,13.60
2018-08-12T00:24:42.715Z,13.50
2018-08-12T00:27:10.907Z,13.50
2018-08-12T00:29:39.120Z,13.50
2018-08-12T00:32:07.363Z,13.40
2018-08-12T00:34:35.562Z,13.40
2018-08-12T00:37:03.958Z,13.40
2018-08-12T00:39:32.291Z,13.40
2018-08-12T00:42:00.531Z,13.30
2018-08-12T00:44:28.723Z,13.30
2018-08-12T00:46:56.977Z,13.30
2018-08-12T00:49:25.152Z,13.30
2018-08-12T00:51:53.379Z,13.20
2018-08-12T00:54:21.727Z,13.20
2018-08-12T00:56:53.827Z,13.10
2018-08-12T00:59:22.172Z,13.10
2018-08-12T01:01:50.378Z,13.10
2018-08-12T01:04:18.566Z,13.10
2018-08-12T01:06:46.795Z,13.10
2018-08-12T01:09:14.995Z,13.10
2018-08-12T01:11:43.248Z,13.10
2018-08-12T01:14:11.636Z,13.00
2018-08-12T01:16:39.830Z,13.00
2018-08-12T01:19:08.038Z,12.90
2018-08-12T01:21:36.351Z,12.90
2018-08-12T01:24:04.563Z,12.80
2018-08-12T01:26:37.151Z,12.80
2018-08-12T01:29:08.598Z,12.80
2018-08-12T01:31:37.037Z,12.70
2018-08-12T01:34:05.263Z,12.70
2018-08-12T01:36:33.517Z,12.70
2018-08-12T01:39:01.721Z,12.60
2018-08-12T01:41:33.654Z,12.60
2018-08-12T01:44:02.041Z,12.60
2018-08-12T01:46:30.277Z,12.60
2018-08-12T01:48:58.807Z,12.50
2018-08-12T01:51:27.322Z,12.50
2018-08-12T01:53:55.567Z,12.50
2018-08-12T01:56:30.482Z,12.50
2018-08-12T01:58:58.670Z,12.40
2018-08-12T02:01:33.603Z,12.40
2018-08-12T02:04:01.780Z,12.30
2018-08-12T02:06:30.003Z,12.30
2018-08-12T02:08:58.543Z,12.30
2018-08-12T02:11:26.737Z,12.20
2018-08-12T02:13:58.163Z,12.20
2018-08-12T02:16:26.345Z,12.20
2018-08-12T02:18:54.584Z,12.20
2018-08-12T02:21:22.788Z,12.20
2018-08-12T02:23:51.012Z,12.10
2018-08-12T02:26:19.234Z,12.10
2018-08-12T02:28:51.345Z,12.10
2018-08-12T02:31:19.528Z,12.10
2018-08-12T02:33:47.761Z,12.10
2018-08-12T02:36:15.927Z,12.00
2018-08-12T02:38:44.142Z,12.00
2018-08-12T02:41:12.340Z,12.00
2018-08-12T02:43:44.957Z,11.90
2018-08-12T02:46:13.176Z,11.90
2018-08-12T02:48:41.406Z,11.90
2018-08-12T02:51:09.613Z,11.80
2018-08-12T02:53:38.721Z,11.80
2018-08-12T02:56:06.940Z,11.80
2018-08-12T02:58:35.122Z,11.70
2018-08-12T03:01:03.879Z,11.70
2018-08-12T03:03:32.271Z,11.70
2018-08-12T03:06:00.450Z,11.70
2018-08-12T03:08:28.652Z,11.70
2018-08-12T03:10:56.831Z,11.70
2018-08-12T03:13:36.859Z,11.60
2018-08-12T03:16:05.412Z,11.60
2018-08-12T03:18:33.638Z,11.50
2018-08-12T03:21:02.055Z,11.60
2018-08-12T03:23:30.262Z,11.60
2018-08-12T03:25:58.479Z,11.50
2018-08-12T03:28:30.164Z,11.50
2018-08-12T03:30:58.532Z,11.40
2018-08-12T03:33:26.739Z,11.40
2018-08-12T03:35:55.171Z,11.40
2018-08-12T03:38:23.380Z,11.40
2018-08-12T03:40:51.633Z,11.40
2018-08-12T03:43:19.812Z,11.40
2018-08-12T03:45:47.970Z,11.30
2018-08-12T03:48:16.180Z,11.30
2018-08-12T03:50:44.586Z,11.30
2018-08-12T03:53:12.796Z,11.30
2018-08-12T03:55:41.008Z,11.30
2018-08-12T03:58:12.590Z,11.30
2018-08-12T04:00:40.803Z,11.30
2018-08-12T04:03:09.519Z,11.20
2018-08-12T04:05:37.887Z,11.30
2018-08-12T04:08:06.082Z,11.20
2018-08-12T04:10:34.492Z,11.20
2018-08-12T04:13:02.695Z,11.30
2018-08-12T04:15:30.882Z,11.20
2018-08-12T04:17:59.145Z,11.20
2018-08-12T04:20:27.332Z,11.20
2018-08-12T04:22:55.511Z,11.30
2018-08-12T04:25:23.994Z,11.30
2018-08-12T04:27:52.169Z,11.30
2018-08-12T04:30:20.385Z,11.40
2018-08-12T04:32:48.627Z,11.40
2018-08-12T04:35:16.845Z,11.40
2018-08-12T04:37:45.127Z,11.50
2018-08-12T04:40:13.432Z,11.60
2018-08-12T04:42:41.652Z,11.70
2018-08-12T04:45:09.865Z,11.70
2018-08-12T04:47:38.589Z,11.80
2018-08-12T04:50:07.439Z,11.90
2018-08-12T04:52:35.952Z,12.00
2018-08-12T04:55:04.353Z,12.10
2018-08-12T04:57:32.963Z,12.90
2018-08-12T05:00:01.216Z,14.10
2018-08-12T05:02:29.435Z,15.00
2018-08-12T05:04:57.921Z,16.00
2018-08-12T05:07:26.116Z,16.80
2018-08-12T05:09:54.324Z,17.20
2018-08-12T05:12:22.542Z,17.60
2018-08-12T05:14:50.747Z,18.10
2018-08-12T05:17:18.919Z,18.50
2018-08-12T05:19:47.347Z,19.10
2018-08-12T05:22:15.550Z,19.60
2018-08-12T05:24:43.734Z,19.90
2018-08-12T05:27:11.976Z,20.20
2018-08-12T05:29:43.017Z,20.40
2018-08-12T05:32:12.151Z,20.80
2018-08-12T05:34:40.339Z,20.80
2018-08-12T05:37:08.528Z,20.70
2018-08-12T05:39:37.193Z,20.50
2018-08-12T05:42:05.371Z,20.90
2018-08-12T05:44:33.596Z,21.30
2018-08-12T05:47:01.824Z,21.70
2018-08-12T05:49:29.995Z,22.10
2018-08-12T05:51:58.204Z,22.40
2018-08-12T05:54:26.415Z,22.00
2018-08-12T05:56:54.671Z,22.00
2018-08-12T05:59:22.863Z,22.00
2018-08-12T06:01:51.135Z,22.40
2018-08-12T06:04:19.348Z,22.80
2018-08-12T06:06:47.668Z,23.40
2018-08-12T06:09:15.863Z,23.00
2018-08-12T06:11:44.120Z,22.90
2018-08-12T06:14:12.312Z,22.50
2018-08-12T06:16:40.795Z,22.70
2018-08-12T06:19:08.994Z,23.10
2018-08-12T06:21:37.180Z,23.00
2018-08-12T06:24:05.583Z,22.20
2018-08-12T06:26:33.786Z,20.80
2018-08-12T06:29:01.966Z,19.70
2018-08-12T06:31:30.281Z,19.40
2018-08-12T06:33:58.475Z,18.90
2018-08-12T06:36:26.707Z,18.60
2018-08-12T06:38:54.920Z,18.40
2018-08-12T06:41:23.104Z,18.40
2018-08-12T06:43:51.310Z,18.40
2018-08-12T06:46:19.616Z,18.40
2018-08-12T06:48:47.860Z,18.50
2018-08-12T06:51:16.537Z,18.70
2018-08-12T06:53:44.721Z,18.70
2018-08-12T06:56:14.291Z,18.80
2018-08-12T06:58:42.664Z,19.00
2018-08-12T07:01:10.847Z,19.00
2018-08-12T07:03:39.068Z,18.90
2018-08-12T07:06:07.488Z,19.00
2018-08-12T07:08:35.684Z,19.10
2018-08-12T07:11:03.927Z,19.20
2018-08-12T07:13:32.158Z,19.50
2018-08-12T07:16:00.356Z,19.60
2018-08-12T07:18:28.551Z,19.60
2018-08-12T07:20:56.747Z,19.70
2018-08-12T07:23:24.947Z,19.70
2018-08-12T07:25:53.348Z,19.60
2018-08-12T07:28:21.574Z,19.70
2018-08-12T07:30:49.803Z,19.90
2018-08-12T07:33:17.985Z,19.90
2018-08-12T07:35:46.202Z,19.90
2018-08-12T07:38:14.411Z,19.80
2018-08-12T07:40:42.948Z,19.80
2018-08-12T07:43:11.124Z,20.00
2018-08-12T07:45:39.351Z,19.90
2018-08-12T07:48:07.618Z,19.90
2018-08-12T07:50:35.835Z,20.00
2018-08-12T07:53:04.043Z,20.00
2018-08-12T07:55:32.322Z,20.30
2018-08-12T07:58:00.940Z,20.50
2018-08-12T08:00:29.154Z,20.60
2018-08-12T08:03:00.244Z,20.60
2018-08-12T08:05:28.491Z,20.80
2018-08-12T08:07:57.203Z,20.90
2018-08-12T08:10:25.431Z,21.00
2018-08-12T08:12:53.672Z,20.90
2018-08-12T08:15:22.332Z,21.00
2018-08-12T08:17:54.063Z,21.00
2018-08-12T08:20:22.663Z,21.00
2018-08-12T08:22:50.888Z,21.20
2018-08-12T08:25:19.181Z,21.40
2018-08-12T08:27:47.359Z,21.60
2018-08-12T08:30:16.081Z,21.70
2018-08-12T08:32:47.918Z,21.90
2018-08-12T08:35:16.146Z,22.00
2018-08-12T08:37:44.349Z,22.00
2018-08-12T08:40:15.197Z,22.10
2018-08-12T08:42:43.383Z,22.20
2018-08-12T08:45:13.996Z,22.30
2018-08-12T08:47:47.230Z,22.40
2018-08-12T08:50:16.079Z,22.50
2018-08-12T08:52:44.535Z,22.50
2018-08-12T08:55:13.729Z,22.50
2018-08-12T08:57:41.973Z,22.60
2018-08-12T09:00:13.380Z,22.70
2018-08-12T09:02:43.073Z,22.70
2018-08-12T09:05:16.431Z,22.80
2018-08-12T09:07:45.484Z,22.90
2018-08-12T09:10:14.998Z,23.10
2018-08-12T09:12:43.208Z,23.30
2018-08-12T09:15:13.576Z,23.50
2018-08-12T09:17:42.657Z,23.70
2018-08-12T09:20:16.471Z,23.80
2018-08-12T09:22:44.738Z,23.90
2018-08-12T09:25:13.617Z,24.00
2018-08-12T09:27:42.104Z,24.20
2018-08-12T09:30:14.401Z,24.20
2018-08-12T09:32:42.975Z,24.30
2018-08-12T09:35:11.756Z,24.50
2018-08-12T09:37:39.963Z,24.70
2018-08-12T09:40:10.233Z,25.00
2018-08-12T09:42:38.452Z,25.10
2018-08-12T09:45:08.476Z,25.20
2018-08-12T09:47:36.699Z,25.20
2018-08-12T09:50:05.928Z,25.20
2018-08-12T09:52:34.159Z,25.20
2018-08-12T09:55:03.107Z,25.00
2018-08-12T09:57:31.686Z,25.00
2018-08-12T09:59:59.907Z,25.00
2018-08-12T10:02:30.327Z,24.80
2018-08-12T10:04:58.536Z,24.90
2018-08-12T10:07:26.805Z,25.00
2018-08-12T10:09:54.922Z,25.10
2018-08-12T10:12:23.107Z,25.10
2018-08-12T10:14:51.295Z,25.00
2018-08-12T10:17:19.535Z,24.90
2018-08-12T10:19:47.818Z,24.90
2018-08-12T10:22:16.045Z,24.90
2018-08-12T10:24:44.261Z,25.10
2018-08-12T10:27:12.484Z,25.10
2018-08-12T10:29:40.714Z,25.10
2018-08-12T10:32:08.873Z,25.10
2018-08-12T10:34:37.052Z,25.20
2018-08-12T10:37:05.444Z,24.70
2018-08-12T10:39:33.727Z,24.60
2018-08-12T10:42:02.256Z,24.80
2018-08-12T10:44:30.577Z,25.00
2018-08-12T10:46:58.954Z,25.10
2018-08-12T10:49:27.197Z,25.20
2018-08-12T10:51:55.521Z,25.30
2018-08-12T10:54:23.825Z,25.10
2018-08-12T10:56:52.138Z,24.80
2018-08-12T10:59:20.471Z,24.90
2018-08-12T11:01:48.621Z,25.10
2018-08-12T11:04:16.832Z,25.30
2018-08-12T11:06:47.816Z,25.30
2018-08-12T11:09:16.134Z,25.30
2018-08-12T11:11:44.952Z,25.40
2018-08-12T11:14:13.193Z,25.60
2018-08-12T11:16:41.682Z,25.50
2018-08-12T11:19:09.899Z,25.40
2018-08-12T11:21:38.398Z,25.20
2018-08-12T11:24:06.672Z,25.30
2018-08-12T11:26:35.306Z,25.40
2018-08-12T11:29:04.499Z,25.50
2018-08-12T11:31:32.780Z,25.40
2018-08-12T11:34:01.000Z,25.60
2018-08-12T11:36:32.730Z,25.70
2018-08-12T11:39:00.925Z,25.70
2018-08-12T11:41:30.029Z,25.70
2018-08-12T11:43:58.279Z,25.70
2018-08-12T11:46:26.621Z,25.70
2018-08-12T11:48:54.811Z,25.80
2018-08-12T11:51:27.323Z,25.90
2018-08-12T11:53:55.564Z,26.20
2018-08-12T11:56:24.834Z,26.20
2018-08-12T11:58:53.179Z,26.30
2018-08-12T12:01:21.856Z,26.30
2018-08-12T12:03:50.115Z,26.30
2018-08-12T12:06:22.379Z,26.20
2018-08-12T12:08:50.583Z,26.20
2018-08-12T12:11:18.824Z,26.30
2018-08-12T12:13:47.289Z,26.50
2018-08-12T12:16:15.483Z,26.60
2018-08-12T12:18:43.711Z,26.70
2018-08-12T12:21:11.943Z,27.00
2018-08-12T12:23:40.136Z,27.10
2018-08-12T12:26:08.422Z,27.10
2018-08-12T12:28:36.576Z,27.10
2018-08-12T12:31:04.743Z,27.00
2018-08-12T12:33:32.964Z,26.90
2018-08-12T12:36:01.192Z,26.70
2018-08-12T12:38:29.392Z,26.80
2018-08-12T12:40:57.631Z,26.90
2018-08-12T12:43:25.832Z,27.00
2018-08-12T12:45:54.064Z,27.00
2018-08-12T12:48:22.268Z,27.00
2018-08-12T12:50:50.513Z,27.20
2018-08-12T12:53:18.694Z,27.30
2018-08-12T12:55:46.924Z,27.50
2018-08-12T12:58:15.146Z,27.50
2018-08-12T13:00:43.343Z,27.60
2018-08-12T13:03:11.549Z,27.70
2018-08-12T13:05:39.798Z,27.80
2018-08-12T13:08:08.015Z,28.00
2018-08-12T13:10:36.207Z,28.20
2018-08-12T13:13:04.404Z,28.10
2018-08-12T13:15:32.663Z,28.10
2018-08-12T13:18:00.931Z,28.20
2018-08-12T13:20:29.127Z,28.30
2018-08-12T13:22:57.315Z,28.10
2018-08-12T13:25:25.528Z,27.90
2018-08-12T13:27:53.731Z,27.90
2018-08-12T13:30:22.372Z,28.00
2018-08-12T13:32:50.888Z,27.70
2018-08-12T13:35:19.084Z,27.60
2018-08-12T13:37:50.865Z,27.40
2018-08-12T13:40:19.090Z,27.10
2018-08-12T13:42:47.476Z,27.30
2018-08-12T13:45:15.924Z,27.50
2018-08-12T13:47:44.952Z,27.70
2018-08-12T13:50:16.224Z,27.80
2018-08-12T13:52:44.398Z,27.90
2018-08-12T13:55:16.983Z,28.20
2018-08-12T13:57:45.505Z,28.30
2018-08-12T14:00:15.640Z,28.50
2018-08-12T14:02:43.892Z,28.50
2018-08-12T14:05:14.247Z,28.60
2018-08-12T14:07:42.957Z,28.70
2018-08-12T14:10:11.620Z,28.70
2018-08-12T14:12:40.300Z,28.60
2018-08-12T14:15:12.001Z,28.10
2018-08-12T14:17:41.136Z,28.30
2018-08-12T14:20:10.559Z,28.50
2018-08-12T14:22:38.911Z,28.60
2018-08-12T14:25:07.561Z,28.60
2018-08-12T14:27:35.804Z,28.60
2018-08-12T14:30:05.737Z,28.60
2018-08-12T14:32:33.984Z,28.80
2018-08-12T14:35:02.187Z,29.00
2018-08-12T14:37:30.493Z,29.10
2018-08-12T14:40:03.155Z,29.10
2018-08-12T14:42:31.402Z,28.90
2018-08-12T14:44:59.631Z,29.00
2018-08-12T14:47:27.850Z,29.10
2018-08-12T14:49:56.071Z,28.60
2018-08-12T14:52:24.267Z,28.60
2018-08-12T14:54:52.468Z,28.90
2018-08-12T14:57:20.711Z,29.00
2018-08-12T14:59:48.948Z,29.30
2018-08-12T15:02:17.172Z,29.40
2018-08-12T15:04:45.370Z,29.40
2018-08-12T15:07:13.714Z,29.10
2018-08-12T15:09:42.771Z,29.30
2018-08-12T15:12:11.048Z,29.40
2018-08-12T15:14:39.353Z,29.40
2018-08-12T15:17:07.870Z,29.50
2018-08-12T15:19:36.057Z,29.60
2018-08-12T15:22:04.280Z,29.50
2018-08-12T15:24:32.556Z,29.50
2018-08-12T15:27:00.860Z,29.50
2018-08-12T15:29:29.052Z,29.60
2018-08-12T15:31:57.263Z,29.70
2018-08-12T15:34:25.511Z,29.80
2018-08-12T15:36:53.687Z,29.80
2018-08-12T15:39:21.904Z,29.80
2018-08-12T15:41:50.083Z,29.80
2018-08-12T15:44:18.319Z,29.60
2018-08-12T15:46:46.707Z,29.70
2018-08-12T15:49:14.958Z,29.70
2018-08-12T15:51:43.323Z,29.60
2018-08-12T15:54:11.516Z,29.60
2018-08-12T15:56:39.755Z,29.60
2018-08-12T15:59:07.971Z,29.70
2018-08-12T16:01:36.180Z,29.70
2018-08-12T16:04:04.384Z,29.80
2018-08-12T16:06:32.611Z,29.70
2018-08-12T16:09:00.842Z,29.80
2018-08-12T16:11:29.195Z,29.70
2018-08-12T16:13:57.589Z,29.70
2018-08-12T16:16:26.330Z,29.70
2018-08-12T16:18:55.669Z,29.80
2018-08-12T16:21:23.868Z,29.70
2018-08-12T16:23:53.464Z,29.50
2018-08-12T16:26:21.894Z,29.20
2018-08-12T16:28:51.188Z,29.10
2018-08-12T16:31:19.579Z,29.20
2018-08-12T16:33:47.915Z,29.20
2018-08-12T16:36:16.425Z,29.20
2018-08-12T16:38:46.401Z,29.30
2018-08-12T16:41:14.629Z,29.20
2018-08-12T16:43:43.033Z,29.20
2018-08-12T16:46:11.258Z,29.20
2018-08-12T16:48:40.384Z,29.60
2018-08-12T16:51:08.665Z,30.20
2018-08-12T16:53:36.924Z,30.80
2018-08-12T16:56:09.514Z,32.00
2018-08-12T16:58:37.703Z,33.10
2018-08-12T17:01:05.946Z,34.20
2018-08-12T17:03:34.145Z,35.10
2018-08-12T17:06:02.354Z,35.50
2018-08-12T17:08:30.566Z,35.30
2018-08-12T17:10:58.773Z,34.90
2018-08-12T17:13:26.983Z,35.00
2018-08-12T17:15:55.285Z,35.10
2018-08-12T17:18:23.624Z,35.20
2018-08-12T17:20:53.817Z,34.40
2018-08-12T17:23:22.070Z,33.80
2018-08-12T17:25:50.442Z,33.50
2018-08-12T17:28:18.632Z,33.50
2018-08-12T17:30:46.880Z,32.90
2018-08-12T17:33:15.133Z,32.60
2018-08-12T17:35:43.447Z,32.20
2018-08-12T17:38:11.665Z,32.30
2018-08-12T17:40:46.392Z,32.70
2018-08-12T17:43:14.615Z,32.20
2018-08-12T17:45:42.874Z,31.70
2018-08-12T17:48:11.107Z,31.10
2018-08-12T17:55:32.004Z,30.90
2018-08-12T17:58:00.212Z,30.20
2018-08-12T18:00:28.425Z,30.00
2018-08-12T18:02:56.669Z,30.10
2018-08-12T18:05:24.866Z,29.60
2018-08-12T18:07:53.006Z,29.10
2018-08-12T18:10:21.222Z,28.70
2018-08-12T18:12:52.434Z,28.30
2018-08-12T18:15:21.647Z,28.00
2018-08-12T18:17:49.910Z,27.50
2018-08-12T18:20:19.111Z,27.00
2018-08-12T18:22:47.344Z,26.60
2018-08-12T18:25:16.905Z,26.20
2018-08-12T18:27:45.090Z,25.80
2018-08-12T18:30:14.901Z,25.50
2018-08-12T18:32:43.196Z,25.20
2018-08-12T18:35:12.125Z,24.80
2018-08-12T18:37:40.564Z,24.50
2018-08-12T18:40:10.229Z,24.20
2018-08-12T18:42:50.936Z,24.10
2018-08-12T18:45:19.132Z,23.90
2018-08-12T18:47:47.339Z,23.60
2018-08-12T18:50:15.976Z,23.30
2018-08-12T18:52:44.165Z,23.10
2018-08-12T18:55:12.960Z,22.90
2018-08-12T18:57:41.147Z,22.70
2018-08-12T19:00:11.221Z,22.50
2018-08-12T19:02:39.607Z,22.40
2018-08-12T19:05:08.402Z,22.30
2018-08-12T19:07:36.710Z,22.20
2018-08-12T19:10:05.690Z,22.10
2018-08-12T19:12:33.924Z,22.00
2018-08-12T19:15:02.135Z,21.90
2018-08-12T19:17:30.860Z,21.80
2018-08-12T19:19:59.083Z,21.70
2018-08-12T19:22:27.378Z,21.60
2018-08-12T19:24:55.621Z,21.40
2018-08-12T19:27:23.808Z,21.40
2018-08-12T19:29:52.015Z,21.30
2018-08-12T19:32:27.071Z,21.20
2018-08-12T19:34:56.235Z,21.10
2018-08-12T19:37:24.506Z,21.00
2018-08-12T19:39:52.677Z,21.00
2018-08-12T19:42:21.346Z,20.90
2018-08-12T19:44:52.452Z,20.80
2018-08-12T19:47:20.708Z,20.80
2018-08-12T19:49:48.936Z,20.80
2018-08-12T19:52:17.215Z,20.70
2018-08-12T19:54:46.350Z,20.70
2018-08-12T19:57:15.029Z,20.60
2018-08-12T19:59:46.523Z,20.60
2018-08-12T20:02:14.702Z,20.50
2018-08-12T20:04:45.849Z,20.30
2018-08-12T20:07:14.126Z,20.30
2018-08-12T20:09:42.339Z,20.30
2018-08-12T20:12:10.682Z,20.20
2018-08-12T20:14:38.907Z,20.10
2018-08-12T20:17:07.117Z,20.00
2018-08-12T20:19:35.350Z,19.90
2018-08-12T20:22:03.552Z,19.80
2018-08-12T20:24:31.794Z,19.70
2018-08-12T20:27:00.199Z,19.70
2018-08-12T20:29:31.460Z,19.60
2018-08-12T20:31:59.647Z,19.50
2018-08-12T20:34:27.867Z,19.50
2018-08-12T20:36:56.537Z,19.40
2018-08-12T20:39:24.779Z,19.30
2018-08-12T20:41:52.985Z,19.40
2018-08-12T20:44:21.160Z,19.30
2018-08-12T20:46:49.394Z,19.30
2018-08-12T20:49:17.582Z,19.20
2018-08-12T20:51:45.856Z,19.10
2018-08-12T20:54:14.062Z,19.00
2018-08-12T20:56:42.355Z,19.00
2018-08-12T20:59:10.581Z,18.90
2018-08-12T21:01:38.831Z,18.90
2018-08-12T21:04:07.084Z,18.80
2018-08-12T21:06:35.232Z,18.80
2018-08-12T21:09:04.869Z,18.60
2018-08-12T21:11:33.039Z,18.60
2018-08-12T21:14:01.264Z,18.60
2018-08-12T21:16:30.334Z,18.50
2018-08-12T21:18:58.466Z,18.50
2018-08-12T21:21:26.701Z,18.50
2018-08-12T21:23:54.947Z,18.50
2018-08-12T21:26:23.320Z,18.50
2018-08-12T21:28:51.517Z,18.40
2018-08-12T21:31:19.695Z,18.40
2018-08-12T21:33:47.951Z,18.40
2018-08-12T21:36:16.164Z,18.30
2018-08-12T21:38:44.378Z,18.30
2018-08-12T21:41:12.594Z,18.30
2018-08-12T21:43:40.807Z,18.30
2018-08-12T21:46:13.050Z,18.20
2018-08-12T21:48:41.274Z,18.10
2018-08-12T21:51:09.487Z,18.10
2018-08-12T21:53:37.691Z,18.00
2018-08-12T21:56:06.041Z,17.90
2018-08-12T21:58:34.224Z,18.00
2018-08-12T22:01:05.358Z,18.00
2018-08-12T22:03:34.551Z,18.00
2018-08-12T22:06:02.777Z,18.00
2018-08-12T22:08:30.914Z,18.00
2018-08-12T22:10:59.148Z,18.00
2018-08-12T22:13:27.325Z,17.90
2018-08-12T22:15:55.535Z,17.90
2018-08-12T22:18:23.769Z,17.90
2018-08-12T22:20:52.010Z,17.80
2018-08-12T22:23:20.231Z,17.90
2018-08-12T22:25:48.503Z,18.00
2018-08-12T22:28:16.748Z,18.00
2018-08-12T22:30:44.942Z,18.10
2018-08-12T22:33:13.195Z,17.90
2018-08-12T22:35:41.449Z,17.80
2018-08-12T22:38:09.647Z,17.80
2018-08-12T22:40:37.852Z,17.80
2018-08-12T22:43:07.121Z,17.90
2018-08-12T22:45:35.349Z,17.90
2018-08-12T22:48:03.617Z,17.80
2018-08-12T22:50:32.724Z,17.60
2018-08-12T22:53:00.952Z,17.70
2018-08-12T22:55:29.353Z,17.70
2018-08-12T22:57:57.578Z,17.70
2018-08-12T23:00:25.770Z,17.70
2018-08-12T23:02:57.019Z,17.70
2018-08-12T23:05:25.260Z,17.60
2018-08-12T23:07:53.532Z,17.40
2018-08-12T23:10:22.477Z,17.40
2018-08-12T23:12:50.654Z,17.40
2018-08-12T23:15:30.286Z,17.30
2018-08-12T23:18:02.271Z,17.20
2018-08-12T23:20:30.478Z,17.30
2018-08-12T23:22:58.692Z,17.30
2018-08-12T23:25:26.910Z,17.20
2018-08-12T23:27:55.087Z,17.10
2018-08-12T23:30:29.900Z,17.00
2018-08-12T23:33:00.980Z,17.00
2018-08-12T23:35:29.208Z,17.00
2018-08-12T23:37:57.415Z,16.90
2018-08-12T23:40:25.617Z,16.90
2018-08-12T23:42:53.903Z,16.80
2018-08-12T23:45:22.087Z,16.70
2018-08-12T23:47:50.307Z,16.70
2018-08-12T23:50:18.540Z,16.50
2018-08-12T23:52:46.758Z,16.50
2018-08-12T23:55:14.952Z,16.40
2018-08-12T23:57:43.161Z,16.30
